sensor_id;sensor_type;location;lat;lon;timestamp;P1;durP1;ratioP1;P2;durP2;ratioP2
31002;SDS011;23051;-6.372;106.786;2022-08-01T00:01:06;7.78;;;6.38;;
31002;SDS011;23051;-6.372;106.786;2022-08-01T00:03:10;7.85;;;6.70;;
31002;SDS011;23051;-6.372;106.786;2022-08-01T00:05:17;7.85;;;5.90;;
31002;SDS011;23051;-6.372;106.786;2022-08-01T00:07:20;7.03;;;5.70;;
31002;SDS011;23051;-6.372;106.786;2022-08-01T00:09:22;14.80;;;8.70;;
31002;SDS011;23051;-6.372;106.786;2022-08-01T00:11:34;13.57;;;5.88;;
31002;SDS011;23051;-6.372;106.786;2022-08-01T00:13:38;10.98;;;6.40;;
31002;SDS011;23051;-6.372;106.786;2022-08-01T00:15:42;15.55;;;8.65;;
31002;SDS011;23051;-6.372;106.786;2022-08-01T00:17:46;11.70;;;6.63;;
31002;SDS011;23051;-6.372;106.786;2022-08-01T00:19:48;11.73;;;7.10;;
31002;SDS011;23051;-6.372;106.786;2022-08-01T00:21:52;11.13;;;7.57;;
31002;SDS011;23051;-6.372;106.786;2022-08-01T00:23:54;11.02;;;6.38;;
31002;SDS011;23051;-6.372;106.786;2022-08-01T00:27:56;14.73;;;11.25;;
31002;SDS011;23051;-6.372;106.786;2022-08-01T00:30:01;8.30;;;6.25;;
31002;SDS011;23051;-6.372;106.786;2022-08-01T00:32:05;7.35;;;6.57;;
31002;SDS011;23051;-6.372;106.786;2022-08-01T00:34:09;16.52;;;7.00;;
31002;SDS011;23051;-6.372;106.786;2022-08-01T00:36:10;14.02;;;6.88;;
31002;SDS011;23051;-6.372;106.786;2022-08-01T00:38:14;20.52;;;10.13;;
31002;SDS011;23051;-6.372;106.786;2022-08-01T00:40:18;25.40;;;10.10;;
31002;SDS011;23051;-6.372;106.786;2022-08-01T00:42:20;8.02;;;7.32;;
31002;SDS011;23051;-6.372;106.786;2022-08-01T00:44:22;15.32;;;9.90;;
31002;SDS011;23051;-6.372;106.786;2022-08-01T00:46:24;23.45;;;9.15;;
31002;SDS011;23051;-6.372;106.786;2022-08-01T00:48:25;12.02;;;5.85;;
31002;SDS011;23051;-6.372;106.786;2022-08-01T00:50:27;20.10;;;10.45;;
31002;SDS011;23051;-6.372;106.786;2022-08-01T00:52:31;17.70;;;9.85;;
31002;SDS011;23051;-6.372;106.786;2022-08-01T00:54:41;11.40;;;8.52;;
31002;SDS011;23051;-6.372;106.786;2022-08-01T00:56:43;16.13;;;8.93;;
31002;SDS011;23051;-6.372;106.786;2022-08-01T00:58:47;19.90;;;10.68;;
31002;SDS011;23051;-6.372;106.786;2022-08-01T01:00:49;35.65;;;16.33;;
31002;SDS011;23051;-6.372;106.786;2022-08-01T01:02:55;33.95;;;13.20;;
31002;SDS011;23051;-6.372;106.786;2022-08-01T01:04:57;22.50;;;12.35;;
31002;SDS011;23051;-6.372;106.786;2022-08-01T01:09:12;19.38;;;14.80;;
31002;SDS011;23051;-6.372;106.786;2022-08-01T01:11:18;13.05;;;10.55;;
31002;SDS011;23051;-6.372;106.786;2022-08-01T01:17:32;33.72;;;13.27;;
31002;SDS011;23051;-6.372;106.786;2022-08-01T01:19:36;37.72;;;13.85;;
31002;SDS011;23051;-6.372;106.786;2022-08-01T01:29:57;22.73;;;14.38;;
31002;SDS011;23051;-6.372;106.786;2022-08-01T01:32:07;27.48;;;17.60;;
31002;SDS011;23051;-6.372;106.786;2022-08-01T01:34:11;50.53;;;18.10;;
31002;SDS011;23051;-6.372;106.786;2022-08-01T01:36:14;42.70;;;15.82;;
31002;SDS011;23051;-6.372;106.786;2022-08-01T01:38:19;22.50;;;12.75;;
31002;SDS011;23051;-6.372;106.786;2022-08-01T01:40:21;28.00;;;9.85;;
31002;SDS011;23051;-6.372;106.786;2022-08-01T01:42:26;24.10;;;12.50;;
31002;SDS011;23051;-6.372;106.786;2022-08-01T01:44:31;37.15;;;15.63;;
31002;SDS011;23051;-6.372;106.786;2022-08-01T01:46:35;12.45;;;10.10;;
31002;SDS011;23051;-6.372;106.786;2022-08-01T01:48:37;28.23;;;11.55;;
31002;SDS011;23051;-6.372;106.786;2022-08-01T01:50:39;22.73;;;11.55;;
31002;SDS011;23051;-6.372;106.786;2022-08-01T01:52:44;19.02;;;10.98;;
31002;SDS011;23051;-6.372;106.786;2022-08-01T01:54:49;20.95;;;12.00;;
31002;SDS011;23051;-6.372;106.786;2022-08-01T01:56:52;15.75;;;11.73;;
31002;SDS011;23051;-6.372;106.786;2022-08-01T02:00:57;24.35;;;8.93;;
31002;SDS011;23051;-6.372;106.786;2022-08-01T02:03:00;22.67;;;12.07;;
31002;SDS011;23051;-6.372;106.786;2022-08-01T02:05:06;13.43;;;10.63;;
31002;SDS011;23051;-6.372;106.786;2022-08-01T02:07:10;26.83;;;10.70;;
31002;SDS011;23051;-6.372;106.786;2022-08-01T02:09:17;11.88;;;7.55;;
31002;SDS011;23051;-6.372;106.786;2022-08-01T02:11:20;19.90;;;9.98;;
31002;SDS011;23051;-6.372;106.786;2022-08-01T02:13:22;12.70;;;7.73;;
31002;SDS011;23051;-6.372;106.786;2022-08-01T02:15:24;10.23;;;8.40;;
31002;SDS011;23051;-6.372;106.786;2022-08-01T02:17:26;12.82;;;10.27;;
31002;SDS011;23051;-6.372;106.786;2022-08-01T02:19:30;18.85;;;10.85;;
31002;SDS011;23051;-6.372;106.786;2022-08-01T02:21:33;21.27;;;7.55;;
31002;SDS011;23051;-6.372;106.786;2022-08-01T02:23:36;9.10;;;6.28;;
31002;SDS011;23051;-6.372;106.786;2022-08-01T02:25:39;17.95;;;9.43;;
31002;SDS011;23051;-6.372;106.786;2022-08-01T02:27:52;18.90;;;9.23;;
31002;SDS011;23051;-6.372;106.786;2022-08-01T02:31:56;7.85;;;6.25;;
31002;SDS011;23051;-6.372;106.786;2022-08-01T02:34:00;9.02;;;7.30;;
31002;SDS011;23051;-6.372;106.786;2022-08-01T02:36:03;17.80;;;10.40;;
31002;SDS011;23051;-6.372;106.786;2022-08-01T02:38:06;17.75;;;9.32;;
31002;SDS011;23051;-6.372;106.786;2022-08-01T02:40:10;13.80;;;7.60;;
31002;SDS011;23051;-6.372;106.786;2022-08-01T02:42:15;17.13;;;9.18;;
31002;SDS011;23051;-6.372;106.786;2022-08-01T02:46:33;12.50;;;8.18;;
31002;SDS011;23051;-6.372;106.786;2022-08-01T02:48:36;10.32;;;7.45;;
31002;SDS011;23051;-6.372;106.786;2022-08-01T02:50:41;13.75;;;6.35;;
31002;SDS011;23051;-6.372;106.786;2022-08-01T02:52:46;9.57;;;7.72;;
31002;SDS011;23051;-6.372;106.786;2022-08-01T02:54:53;17.58;;;8.82;;
31002;SDS011;23051;-6.372;106.786;2022-08-01T02:56:58;11.95;;;7.13;;
31002;SDS011;23051;-6.372;106.786;2022-08-01T02:59:06;10.27;;;6.57;;
31002;SDS011;23051;-6.372;106.786;2022-08-01T03:01:08;6.82;;;5.60;;
31002;SDS011;23051;-6.372;106.786;2022-08-01T03:03:13;9.55;;;7.63;;
31002;SDS011;23051;-6.372;106.786;2022-08-01T03:05:15;31.10;;;8.50;;
31002;SDS011;23051;-6.372;106.786;2022-08-01T03:07:22;8.20;;;5.97;;
31002;SDS011;23051;-6.372;106.786;2022-08-01T03:09:25;8.73;;;5.35;;
31002;SDS011;23051;-6.372;106.786;2022-08-01T03:11:28;12.18;;;6.85;;
31002;SDS011;23051;-6.372;106.786;2022-08-01T03:13:30;7.15;;;5.80;;
31002;SDS011;23051;-6.372;106.786;2022-08-01T03:15:35;13.00;;;4.68;;
31002;SDS011;23051;-6.372;106.786;2022-08-01T03:17:40;17.58;;;7.82;;
31002;SDS011;23051;-6.372;106.786;2022-08-01T03:19:43;21.13;;;4.82;;
31002;SDS011;23051;-6.372;106.786;2022-08-01T03:21:46;8.93;;;4.78;;
31002;SDS011;23051;-6.372;106.786;2022-08-01T03:23:52;6.20;;;5.63;;
31002;SDS011;23051;-6.372;106.786;2022-08-01T03:25:59;15.10;;;5.10;;
31002;SDS011;23051;-6.372;106.786;2022-08-01T03:28:07;9.50;;;5.53;;
31002;SDS011;23051;-6.372;106.786;2022-08-01T03:30:09;7.60;;;4.38;;
31002;SDS011;23051;-6.372;106.786;2022-08-01T03:32:13;5.43;;;4.68;;
31002;SDS011;23051;-6.372;106.786;2022-08-01T03:34:16;9.90;;;5.30;;
31002;SDS011;23051;-6.372;106.786;2022-08-01T03:36:21;7.72;;;5.50;;
31002;SDS011;23051;-6.372;106.786;2022-08-01T03:38:25;12.93;;;6.38;;
31002;SDS011;23051;-6.372;106.786;2022-08-01T03:40:32;6.10;;;5.40;;
31002;SDS011;23051;-6.372;106.786;2022-08-01T03:42:37;23.27;;;7.68;;
31002;SDS011;23051;-6.372;106.786;2022-08-01T03:44:43;8.13;;;4.22;;
31002;SDS011;23051;-6.372;106.786;2022-08-01T03:46:58;10.20;;;5.07;;
31002;SDS011;23051;-6.372;106.786;2022-08-01T03:49:02;6.15;;;5.60;;
31002;SDS011;23051;-6.372;106.786;2022-08-01T03:51:04;9.13;;;6.13;;
31002;SDS011;23051;-6.372;106.786;2022-08-01T03:53:09;10.10;;;7.10;;
31002;SDS011;23051;-6.372;106.786;2022-08-01T03:55:14;11.57;;;7.55;;
31002;SDS011;23051;-6.372;106.786;2022-08-01T03:57:19;9.32;;;5.82;;
31002;SDS011;23051;-6.372;106.786;2022-08-01T03:59:22;8.55;;;4.88;;
31002;SDS011;23051;-6.372;106.786;2022-08-01T04:01:24;11.45;;;7.80;;
31002;SDS011;23051;-6.372;106.786;2022-08-01T04:03:28;9.93;;;6.07;;
31002;SDS011;23051;-6.372;106.786;2022-08-01T04:05:30;10.75;;;6.68;;
31002;SDS011;23051;-6.372;106.786;2022-08-01T04:07:34;14.75;;;7.22;;
31002;SDS011;23051;-6.372;106.786;2022-08-01T04:09:36;5.65;;;5.03;;
31002;SDS011;23051;-6.372;106.786;2022-08-01T04:13:39;7.10;;;6.40;;
31002;SDS011;23051;-6.372;106.786;2022-08-01T04:15:41;18.13;;;6.38;;
31002;SDS011;23051;-6.372;106.786;2022-08-01T04:17:42;9.68;;;6.22;;
31002;SDS011;23051;-6.372;106.786;2022-08-01T04:19:46;10.18;;;5.00;;
31002;SDS011;23051;-6.372;106.786;2022-08-01T04:21:48;5.57;;;4.00;;
31002;SDS011;23051;-6.372;106.786;2022-08-01T04:23:52;8.77;;;6.22;;
31002;SDS011;23051;-6.372;106.786;2022-08-01T04:25:54;6.55;;;5.03;;
31002;SDS011;23051;-6.372;106.786;2022-08-01T04:27:59;12.75;;;5.72;;
31002;SDS011;23051;-6.372;106.786;2022-08-01T04:30:07;12.05;;;7.25;;
31002;SDS011;23051;-6.372;106.786;2022-08-01T04:32:10;12.25;;;5.93;;
31002;SDS011;23051;-6.372;106.786;2022-08-01T04:34:16;9.50;;;7.15;;
31002;SDS011;23051;-6.372;106.786;2022-08-01T04:38:21;7.18;;;5.68;;
31002;SDS011;23051;-6.372;106.786;2022-08-01T04:40:30;6.70;;;5.25;;
31002;SDS011;23051;-6.372;106.786;2022-08-01T04:42:36;5.90;;;4.25;;
31002;SDS011;23051;-6.372;106.786;2022-08-01T04:44:40;5.70;;;4.10;;
31002;SDS011;23051;-6.372;106.786;2022-08-01T04:46:47;8.02;;;4.90;;
31002;SDS011;23051;-6.372;106.786;2022-08-01T04:48:49;9.13;;;6.45;;
31002;SDS011;23051;-6.372;106.786;2022-08-01T04:50:51;8.18;;;6.82;;
31002;SDS011;23051;-6.372;106.786;2022-08-01T04:52:55;4.28;;;3.45;;
31002;SDS011;23051;-6.372;106.786;2022-08-01T04:55:00;10.73;;;5.00;;
31002;SDS011;23051;-6.372;106.786;2022-08-01T04:57:04;7.93;;;4.50;;
31002;SDS011;23051;-6.372;106.786;2022-08-01T04:59:08;3.40;;;3.10;;
31002;SDS011;23051;-6.372;106.786;2022-08-01T05:01:13;7.25;;;5.28;;
31002;SDS011;23051;-6.372;106.786;2022-08-01T05:03:17;7.40;;;5.60;;
31002;SDS011;23051;-6.372;106.786;2022-08-01T05:05:18;4.00;;;3.60;;
31002;SDS011;23051;-6.372;106.786;2022-08-01T05:07:23;5.45;;;3.78;;
31002;SDS011;23051;-6.372;106.786;2022-08-01T05:09:27;9.73;;;3.30;;
31002;SDS011;23051;-6.372;106.786;2022-08-01T05:11:32;8.20;;;5.20;;
31002;SDS011;23051;-6.372;106.786;2022-08-01T05:13:33;6.18;;;4.28;;
31002;SDS011;23051;-6.372;106.786;2022-08-01T05:15:37;5.43;;;4.63;;
31002;SDS011;23051;-6.372;106.786;2022-08-01T05:17:41;38.30;;;6.22;;
31002;SDS011;23051;-6.372;106.786;2022-08-01T05:19:45;7.30;;;4.72;;
31002;SDS011;23051;-6.372;106.786;2022-08-01T05:21:49;5.05;;;4.55;;
31002;SDS011;23051;-6.372;106.786;2022-08-01T05:23:55;6.60;;;3.78;;
31002;SDS011;23051;-6.372;106.786;2022-08-01T05:25:58;6.65;;;3.95;;
31002;SDS011;23051;-6.372;106.786;2022-08-01T05:27:59;10.73;;;4.80;;
31002;SDS011;23051;-6.372;106.786;2022-08-01T05:30:06;4.95;;;3.92;;
31002;SDS011;23051;-6.372;106.786;2022-08-01T05:32:08;5.10;;;3.80;;
31002;SDS011;23051;-6.372;106.786;2022-08-01T05:34:12;11.30;;;5.38;;
31002;SDS011;23051;-6.372;106.786;2022-08-01T05:36:14;8.15;;;3.85;;
31002;SDS011;23051;-6.372;106.786;2022-08-01T05:38:18;7.03;;;4.25;;
31002;SDS011;23051;-6.372;106.786;2022-08-01T05:40:25;9.13;;;6.72;;
31002;SDS011;23051;-6.372;106.786;2022-08-01T05:42:29;5.93;;;4.45;;
31002;SDS011;23051;-6.372;106.786;2022-08-01T05:44:31;6.63;;;4.97;;
31002;SDS011;23051;-6.372;106.786;2022-08-01T05:46:35;3.65;;;3.35;;
31002;SDS011;23051;-6.372;106.786;2022-08-01T05:48:42;12.60;;;3.38;;
31002;SDS011;23051;-6.372;106.786;2022-08-01T05:50:48;5.03;;;3.28;;
31002;SDS011;23051;-6.372;106.786;2022-08-01T05:52:50;5.35;;;4.82;;
31002;SDS011;23051;-6.372;106.786;2022-08-01T05:54:52;3.28;;;3.03;;
31002;SDS011;23051;-6.372;106.786;2022-08-01T05:56:56;5.07;;;4.40;;
31002;SDS011;23051;-6.372;106.786;2022-08-01T05:59:01;4.78;;;2.42;;
31002;SDS011;23051;-6.372;106.786;2022-08-01T06:01:03;2.63;;;2.42;;
31002;SDS011;23051;-6.372;106.786;2022-08-01T06:03:10;3.88;;;2.67;;
31002;SDS011;23051;-6.372;106.786;2022-08-01T06:05:12;3.75;;;2.90;;
31002;SDS011;23051;-6.372;106.786;2022-08-01T06:07:13;4.70;;;3.92;;
31002;SDS011;23051;-6.372;106.786;2022-08-01T06:09:17;3.65;;;2.60;;
31002;SDS011;23051;-6.372;106.786;2022-08-01T06:11:22;5.97;;;4.07;;
31002;SDS011;23051;-6.372;106.786;2022-08-01T06:13:23;5.65;;;3.72;;
31002;SDS011;23051;-6.372;106.786;2022-08-01T06:15:27;5.55;;;4.50;;
31002;SDS011;23051;-6.372;106.786;2022-08-01T06:19:30;5.82;;;3.35;;
31002;SDS011;23051;-6.372;106.786;2022-08-01T06:21:34;5.43;;;3.80;;
31002;SDS011;23051;-6.372;106.786;2022-08-01T06:23:36;4.57;;;3.53;;
31002;SDS011;23051;-6.372;106.786;2022-08-01T06:25:38;2.15;;;1.90;;
31002;SDS011;23051;-6.372;106.786;2022-08-01T06:27:40;4.43;;;3.30;;
31002;SDS011;23051;-6.372;106.786;2022-08-01T06:29:44;2.75;;;2.53;;
31002;SDS011;23051;-6.372;106.786;2022-08-01T06:31:48;3.28;;;2.97;;
31002;SDS011;23051;-6.372;106.786;2022-08-01T06:33:50;3.65;;;2.65;;
31002;SDS011;23051;-6.372;106.786;2022-08-01T06:35:52;1.75;;;1.65;;
31002;SDS011;23051;-6.372;106.786;2022-08-01T06:37:56;4.82;;;4.43;;
31002;SDS011;23051;-6.372;106.786;2022-08-01T06:40:11;4.25;;;3.33;;
31002;SDS011;23051;-6.372;106.786;2022-08-01T06:42:15;4.88;;;3.85;;
31002;SDS011;23051;-6.372;106.786;2022-08-01T06:44:19;5.45;;;3.78;;
31002;SDS011;23051;-6.372;106.786;2022-08-01T06:46:23;5.97;;;3.20;;
31002;SDS011;23051;-6.372;106.786;2022-08-01T06:48:25;4.93;;;2.97;;
31002;SDS011;23051;-6.372;106.786;2022-08-01T06:50:32;5.45;;;3.60;;
31002;SDS011;23051;-6.372;106.786;2022-08-01T06:52:36;4.03;;;3.47;;
31002;SDS011;23051;-6.372;106.786;2022-08-01T06:54:37;7.93;;;3.08;;
31002;SDS011;23051;-6.372;106.786;2022-08-01T06:56:44;2.40;;;2.17;;
31002;SDS011;23051;-6.372;106.786;2022-08-01T06:58:50;3.33;;;2.17;;
31002;SDS011;23051;-6.372;106.786;2022-08-01T07:00:54;5.70;;;3.53;;
31002;SDS011;23051;-6.372;106.786;2022-08-01T07:02:56;5.25;;;2.85;;
31002;SDS011;23051;-6.372;106.786;2022-08-01T07:05:00;4.70;;;4.30;;
31002;SDS011;23051;-6.372;106.786;2022-08-01T07:07:06;2.45;;;2.28;;
31002;SDS011;23051;-6.372;106.786;2022-08-01T07:09:07;3.22;;;2.33;;
31002;SDS011;23051;-6.372;106.786;2022-08-01T07:11:09;3.92;;;2.72;;
31002;SDS011;23051;-6.372;106.786;2022-08-01T07:13:11;4.63;;;1.83;;
31002;SDS011;23051;-6.372;106.786;2022-08-01T07:15:15;2.88;;;2.45;;
31002;SDS011;23051;-6.372;106.786;2022-08-01T07:17:17;7.45;;;5.30;;
31002;SDS011;23051;-6.372;106.786;2022-08-01T07:19:23;5.40;;;2.65;;
31002;SDS011;23051;-6.372;106.786;2022-08-01T07:21:24;3.60;;;3.30;;
31002;SDS011;23051;-6.372;106.786;2022-08-01T07:23:28;5.80;;;3.78;;
31002;SDS011;23051;-6.372;106.786;2022-08-01T07:25:30;4.18;;;3.72;;
31002;SDS011;23051;-6.372;106.786;2022-08-01T07:27:34;4.30;;;3.92;;
31002;SDS011;23051;-6.372;106.786;2022-08-01T07:29:38;5.45;;;3.83;;
31002;SDS011;23051;-6.372;106.786;2022-08-01T07:31:43;5.30;;;3.35;;
31002;SDS011;23051;-6.372;106.786;2022-08-01T07:33:47;4.63;;;3.45;;
31002;SDS011;23051;-6.372;106.786;2022-08-01T07:35:48;9.18;;;3.78;;
31002;SDS011;23051;-6.372;106.786;2022-08-01T07:37:55;3.40;;;2.83;;
31002;SDS011;23051;-6.372;106.786;2022-08-01T07:39:59;4.13;;;3.30;;
31002;SDS011;23051;-6.372;106.786;2022-08-01T07:42:03;5.60;;;3.72;;
31002;SDS011;23051;-6.372;106.786;2022-08-01T07:44:04;5.20;;;2.63;;
31002;SDS011;23051;-6.372;106.786;2022-08-01T07:46:06;5.85;;;3.60;;
31002;SDS011;23051;-6.372;106.786;2022-08-01T07:48:08;4.90;;;2.53;;
31002;SDS011;23051;-6.372;106.786;2022-08-01T07:50:09;4.63;;;4.22;;
31002;SDS011;23051;-6.372;106.786;2022-08-01T07:54:16;6.03;;;3.92;;
31002;SDS011;23051;-6.372;106.786;2022-08-01T07:56:20;4.22;;;3.83;;
31002;SDS011;23051;-6.372;106.786;2022-08-01T07:58:24;6.22;;;4.45;;
31002;SDS011;23051;-6.372;106.786;2022-08-01T08:00:28;4.55;;;4.18;;
31002;SDS011;23051;-6.372;106.786;2022-08-01T08:02:32;5.40;;;2.92;;
31002;SDS011;23051;-6.372;106.786;2022-08-01T08:04:36;12.98;;;4.47;;
31002;SDS011;23051;-6.372;106.786;2022-08-01T08:06:38;3.88;;;3.38;;
31002;SDS011;23051;-6.372;106.786;2022-08-01T08:08:44;12.60;;;5.38;;
31002;SDS011;23051;-6.372;106.786;2022-08-01T08:10:48;6.00;;;3.67;;
31002;SDS011;23051;-6.372;106.786;2022-08-01T08:12:52;6.47;;;4.68;;
31002;SDS011;23051;-6.372;106.786;2022-08-01T08:14:56;5.15;;;3.55;;
31002;SDS011;23051;-6.372;106.786;2022-08-01T08:16:59;7.63;;;4.25;;
31002;SDS011;23051;-6.372;106.786;2022-08-01T08:19:03;3.28;;;2.95;;
31002;SDS011;23051;-6.372;106.786;2022-08-01T08:21:08;5.93;;;3.25;;
31002;SDS011;23051;-6.372;106.786;2022-08-01T08:23:12;9.05;;;4.18;;
31002;SDS011;23051;-6.372;106.786;2022-08-01T08:25:19;4.18;;;3.78;;
31002;SDS011;23051;-6.372;106.786;2022-08-01T08:27:22;5.88;;;4.30;;
31002;SDS011;23051;-6.372;106.786;2022-08-01T08:29:26;6.72;;;5.35;;
31002;SDS011;23051;-6.372;106.786;2022-08-01T08:31:32;10.75;;;4.28;;
31002;SDS011;23051;-6.372;106.786;2022-08-01T08:33:36;11.82;;;4.25;;
31002;SDS011;23051;-6.372;106.786;2022-08-01T08:35:39;8.45;;;4.57;;
31002;SDS011;23051;-6.372;106.786;2022-08-01T08:37:43;3.05;;;2.75;;
31002;SDS011;23051;-6.372;106.786;2022-08-01T08:39:44;6.25;;;4.75;;
31002;SDS011;23051;-6.372;106.786;2022-08-01T08:41:49;4.13;;;3.25;;
31002;SDS011;23051;-6.372;106.786;2022-08-01T08:43:51;6.53;;;3.85;;
31002;SDS011;23051;-6.372;106.786;2022-08-01T08:45:54;9.82;;;5.55;;
31002;SDS011;23051;-6.372;106.786;2022-08-01T08:47:59;5.00;;;4.50;;
31002;SDS011;23051;-6.372;106.786;2022-08-01T08:50:01;5.70;;;2.60;;
31002;SDS011;23051;-6.372;106.786;2022-08-01T08:52:04;6.50;;;5.05;;
31002;SDS011;23051;-6.372;106.786;2022-08-01T08:54:06;5.13;;;3.53;;
31002;SDS011;23051;-6.372;106.786;2022-08-01T08:56:10;9.75;;;4.30;;
31002;SDS011;23051;-6.372;106.786;2022-08-01T08:58:15;5.63;;;3.08;;
31002;SDS011;23051;-6.372;106.786;2022-08-01T09:00:19;6.00;;;3.95;;
31002;SDS011;23051;-6.372;106.786;2022-08-01T09:02:23;2.78;;;2.33;;
31002;SDS011;23051;-6.372;106.786;2022-08-01T09:04:27;6.93;;;4.28;;
31002;SDS011;23051;-6.372;106.786;2022-08-01T09:06:31;5.60;;;2.92;;
31002;SDS011;23051;-6.372;106.786;2022-08-01T09:08:33;5.97;;;3.25;;
31002;SDS011;23051;-6.372;106.786;2022-08-01T09:10:39;12.75;;;5.00;;
31002;SDS011;23051;-6.372;106.786;2022-08-01T09:13:00;7.55;;;3.95;;
31002;SDS011;23051;-6.372;106.786;2022-08-01T09:15:05;15.48;;;4.60;;
31002;SDS011;23051;-6.372;106.786;2022-08-01T09:17:12;6.35;;;3.40;;
31002;SDS011;23051;-6.372;106.786;2022-08-01T09:19:18;3.17;;;2.92;;
31002;SDS011;23051;-6.372;106.786;2022-08-01T09:21:21;2.90;;;2.70;;
31002;SDS011;23051;-6.372;106.786;2022-08-01T09:25:49;4.63;;;4.15;;
31002;SDS011;23051;-6.372;106.786;2022-08-01T09:28:01;10.60;;;4.20;;
31002;SDS011;23051;-6.372;106.786;2022-08-01T09:30:07;3.30;;;2.42;;
31002;SDS011;23051;-6.372;106.786;2022-08-01T09:34:12;6.93;;;3.55;;
31002;SDS011;23051;-6.372;106.786;2022-08-01T09:36:14;7.18;;;3.85;;
31002;SDS011;23051;-6.372;106.786;2022-08-01T09:40:20;5.20;;;4.05;;
31002;SDS011;23051;-6.372;106.786;2022-08-01T09:42:25;5.68;;;4.20;;
31002;SDS011;23051;-6.372;106.786;2022-08-01T09:46:33;7.18;;;2.75;;
31002;SDS011;23051;-6.372;106.786;2022-08-01T09:48:38;2.55;;;2.35;;
31002;SDS011;23051;-6.372;106.786;2022-08-01T09:50:44;5.63;;;2.45;;
31002;SDS011;23051;-6.372;106.786;2022-08-01T09:52:53;4.45;;;3.28;;
31002;SDS011;23051;-6.372;106.786;2022-08-01T09:54:58;5.72;;;3.28;;
31002;SDS011;23051;-6.372;106.786;2022-08-01T09:59:04;3.97;;;3.65;;
31002;SDS011;23051;-6.372;106.786;2022-08-01T10:01:06;2.10;;;2.00;;
31002;SDS011;23051;-6.372;106.786;2022-08-01T10:05:14;6.43;;;2.05;;
31002;SDS011;23051;-6.372;106.786;2022-08-01T10:07:22;6.55;;;3.25;;
31002;SDS011;23051;-6.372;106.786;2022-08-01T10:09:27;3.60;;;2.63;;
31002;SDS011;23051;-6.372;106.786;2022-08-01T10:11:29;6.78;;;2.70;;
31002;SDS011;23051;-6.372;106.786;2022-08-01T10:13:34;2.83;;;2.63;;
31002;SDS011;23051;-6.372;106.786;2022-08-01T10:15:39;15.15;;;4.00;;
31002;SDS011;23051;-6.372;106.786;2022-08-01T10:17:47;4.47;;;2.95;;
31002;SDS011;23051;-6.372;106.786;2022-08-01T10:19:52;9.35;;;4.95;;
31002;SDS011;23051;-6.372;106.786;2022-08-01T10:21:55;3.35;;;3.05;;
31002;SDS011;23051;-6.372;106.786;2022-08-01T10:24:00;7.25;;;3.22;;
31002;SDS011;23051;-6.372;106.786;2022-08-01T10:26:06;3.75;;;3.15;;
31002;SDS011;23051;-6.372;106.786;2022-08-01T10:28:14;3.65;;;3.10;;
31002;SDS011;23051;-6.372;106.786;2022-08-01T10:30:19;3.22;;;2.58;;
31002;SDS011;23051;-6.372;106.786;2022-08-01T10:32:23;2.33;;;2.17;;
31002;SDS011;23051;-6.372;106.786;2022-08-01T10:34:27;15.55;;;5.63;;
31002;SDS011;23051;-6.372;106.786;2022-08-01T10:36:30;3.75;;;3.55;;
31002;SDS011;23051;-6.372;106.786;2022-08-01T10:38:33;4.03;;;3.70;;
31002;SDS011;23051;-6.372;106.786;2022-08-01T10:40:35;5.00;;;4.40;;
31002;SDS011;23051;-6.372;106.786;2022-08-01T10:42:38;6.05;;;3.65;;
31002;SDS011;23051;-6.372;106.786;2022-08-01T10:44:41;16.33;;;5.22;;
31002;SDS011;23051;-6.372;106.786;2022-08-01T10:46:45;11.05;;;4.88;;
31002;SDS011;23051;-6.372;106.786;2022-08-01T10:50:58;8.48;;;4.40;;
31002;SDS011;23051;-6.372;106.786;2022-08-01T10:55:05;4.40;;;2.92;;
31002;SDS011;23051;-6.372;106.786;2022-08-01T10:59:07;4.50;;;4.10;;
31002;SDS011;23051;-6.372;106.786;2022-08-01T11:03:16;5.82;;;4.03;;
31002;SDS011;23051;-6.372;106.786;2022-08-01T11:05:36;4.65;;;4.05;;
31002;SDS011;23051;-6.372;106.786;2022-08-01T11:07:43;4.13;;;3.35;;
31002;SDS011;23051;-6.372;106.786;2022-08-01T11:09:49;13.57;;;5.22;;
31002;SDS011;23051;-6.372;106.786;2022-08-01T11:14:09;5.75;;;3.15;;
31002;SDS011;23051;-6.372;106.786;2022-08-01T11:18:39;14.68;;;3.05;;
31002;SDS011;23051;-6.372;106.786;2022-08-01T11:20:39;11.15;;;4.18;;
31002;SDS011;23051;-6.372;106.786;2022-08-01T11:25:05;6.07;;;3.83;;
31002;SDS011;23051;-6.372;106.786;2022-08-01T11:29:17;6.20;;;3.90;;
31002;SDS011;23051;-6.372;106.786;2022-08-01T11:37:52;3.63;;;2.63;;
31002;SDS011;23051;-6.372;106.786;2022-08-01T11:42:17;5.68;;;2.38;;
31002;SDS011;23051;-6.372;106.786;2022-08-01T11:48:29;5.20;;;3.42;;
31002;SDS011;23051;-6.372;106.786;2022-08-01T11:50:33;11.85;;;2.88;;
31002;SDS011;23051;-6.372;106.786;2022-08-01T11:52:35;10.25;;;3.88;;
31002;SDS011;23051;-6.372;106.786;2022-08-01T11:54:43;8.63;;;4.57;;
31002;SDS011;23051;-6.372;106.786;2022-08-01T11:56:47;8.20;;;3.28;;
31002;SDS011;23051;-6.372;106.786;2022-08-01T11:58:52;21.30;;;4.30;;
31002;SDS011;23051;-6.372;106.786;2022-08-01T12:01:00;3.35;;;2.25;;
31002;SDS011;23051;-6.372;106.786;2022-08-01T12:03:02;7.35;;;5.00;;
31002;SDS011;23051;-6.372;106.786;2022-08-01T12:05:06;5.07;;;2.72;;
31002;SDS011;23051;-6.372;106.786;2022-08-01T12:07:13;4.07;;;3.78;;
31002;SDS011;23051;-6.372;106.786;2022-08-01T12:09:15;4.57;;;2.78;;
31002;SDS011;23051;-6.372;106.786;2022-08-01T12:11:17;8.40;;;2.97;;
31002;SDS011;23051;-6.372;106.786;2022-08-01T12:13:23;3.28;;;2.78;;
31002;SDS011;23051;-6.372;106.786;2022-08-01T12:15:29;3.08;;;2.72;;
31002;SDS011;23051;-6.372;106.786;2022-08-01T12:17:49;10.35;;;2.85;;
31002;SDS011;23051;-6.372;106.786;2022-08-01T12:19:53;14.93;;;3.90;;
31002;SDS011;23051;-6.372;106.786;2022-08-01T12:24:02;3.33;;;3.05;;
31002;SDS011;23051;-6.372;106.786;2022-08-01T12:26:06;4.63;;;3.05;;
31002;SDS011;23051;-6.372;106.786;2022-08-01T12:28:11;6.97;;;5.35;;
31002;SDS011;23051;-6.372;106.786;2022-08-01T12:30:17;8.88;;;4.40;;
31002;SDS011;23051;-6.372;106.786;2022-08-01T12:32:30;4.75;;;2.65;;
31002;SDS011;23051;-6.372;106.786;2022-08-01T12:34:32;4.63;;;3.42;;
31002;SDS011;23051;-6.372;106.786;2022-08-01T12:36:36;5.07;;;3.95;;
31002;SDS011;23051;-6.372;106.786;2022-08-01T12:38:38;5.78;;;3.15;;
31002;SDS011;23051;-6.372;106.786;2022-08-01T12:40:42;5.28;;;2.50;;
31002;SDS011;23051;-6.372;106.786;2022-08-01T12:42:46;4.93;;;3.67;;
31002;SDS011;23051;-6.372;106.786;2022-08-01T12:44:50;6.07;;;2.55;;
31002;SDS011;23051;-6.372;106.786;2022-08-01T12:46:55;5.47;;;3.72;;
31002;SDS011;23051;-6.372;106.786;2022-08-01T12:48:57;9.73;;;4.50;;
31002;SDS011;23051;-6.372;106.786;2022-08-01T12:51:02;4.38;;;3.13;;
31002;SDS011;23051;-6.372;106.786;2022-08-01T12:53:11;3.10;;;2.53;;
31002;SDS011;23051;-6.372;106.786;2022-08-01T12:55:17;5.90;;;3.85;;
31002;SDS011;23051;-6.372;106.786;2022-08-01T12:57:23;6.38;;;3.35;;
31002;SDS011;23051;-6.372;106.786;2022-08-01T12:59:27;7.20;;;3.47;;
31002;SDS011;23051;-6.372;106.786;2022-08-01T13:01:30;9.98;;;3.63;;
31002;SDS011;23051;-6.372;106.786;2022-08-01T13:03:32;4.57;;;3.57;;
31002;SDS011;23051;-6.372;106.786;2022-08-01T13:07:40;6.25;;;4.03;;
31002;SDS011;23051;-6.372;106.786;2022-08-01T13:11:47;3.25;;;2.90;;
31002;SDS011;23051;-6.372;106.786;2022-08-01T13:13:53;3.80;;;3.22;;
31002;SDS011;23051;-6.372;106.786;2022-08-01T13:18:21;5.53;;;3.17;;
31002;SDS011;23051;-6.372;106.786;2022-08-01T13:20:24;3.65;;;3.17;;
31002;SDS011;23051;-6.372;106.786;2022-08-01T13:24:30;13.07;;;4.22;;
31002;SDS011;23051;-6.372;106.786;2022-08-01T13:28:38;2.50;;;2.30;;